sensor_id;sensor_type;location;lat;lon;timestamp;pressure;altitude;pressure_sealevel;temperature;humidity
59513;BME280;45330;51.634;5.562;2024-01-15T00:02:06;100314.19;;;0.20;100.00
59513;BME280;45330;51.634;5.562;2024-01-15T00:04:36;100306.50;;;0.20;100.00
59513;BME280;45330;51.634;5.562;2024-01-15T00:07:01;100328.28;;;0.36;100.00
59513;BME280;45330;51.634;5.562;2024-01-15T00:09:27;100318.78;;;0.31;100.00
59513;BME280;45330;51.634;5.562;2024-01-15T00:11:53;100297.63;;;0.07;100.00
59513;BME280;45330;51.634;5.562;2024-01-15T00:14:18;100320.16;;;0.19;100.00
59513;BME280;45330;51.634;5.562;2024-01-15T00:16:45;100303.63;;;0.07;100.00
59513;BME280;45330;51.634;5.562;2024-01-15T00:19:11;100280.03;;;-0.13;100.00
59513;BME280;45330;51.634;5.562;2024-01-15T00:21:36;100315.59;;;0.08;100.00
59513;BME280;45330;51.634;5.562;2024-01-15T00:24:01;100307.88;;;0.07;100.00
59513;BME280;45330;51.634;5.562;2024-01-15T00:26:27;100315.59;;;0.08;100.00
59513;BME280;45330;51.634;5.562;2024-01-15T00:28:52;100302.72;;;0.05;100.00
59513;BME280;45330;51.634;5.562;2024-01-15T00:31:17;100294.91;;;0.01;100.00
59513;BME280;45330;51.634;5.562;2024-01-15T00:33:43;100269.56;;;-0.22;100.00
59513;BME280;45330;51.634;5.562;2024-01-15T00:36:08;100265.16;;;-0.28;100.00
59513;BME280;45330;51.634;5.562;2024-01-15T00:38:34;100291.88;;;-0.16;100.00
59513;BME280;45330;51.634;5.562;2024-01-15T00:40:59;100257.81;;;-0.46;100.00
59513;BME280;45330;51.634;5.562;2024-01-15T00:43:24;100283.78;;;-0.32;100.00
59513;BME280;45330;51.634;5.562;2024-01-15T00:45:50;100287.84;;;-0.39;100.00
59513;BME280;45330;51.634;5.562;2024-01-15T00:48:15;100253.94;;;-0.62;100.00
59513;BME280;45330;51.634;5.562;2024-01-15T00:50:40;100284.22;;;-0.45;100.00
59513;BME280;45330;51.634;5.562;2024-01-15T00:53:06;100276.47;;;-0.48;100.00
59513;BME280;45330;51.634;5.562;2024-01-15T00:55:31;100268.63;;;-0.55;100.00
59513;BME280;45330;51.634;5.562;2024-01-15T00:57:57;100250.38;;;-0.67;100.00
59513;BME280;45330;51.634;5.562;2024-01-15T01:00:22;100270.91;;;-0.64;100.00
59513;BME280;45330;51.634;5.562;2024-01-15T01:02:47;100240.44;;;-0.87;100.00
59513;BME280;45330;51.634;5.562;2024-01-15T01:05:13;100241.28;;;-0.86;100.00
59513;BME280;45330;51.634;5.562;2024-01-15T01:07:38;100247.22;;;-0.87;100.00
59513;BME280;45330;51.634;5.562;2024-01-15T01:10:04;100254.16;;;-0.83;100.00
59513;BME280;45330;51.634;5.562;2024-01-15T01:12:30;100243.66;;;-0.92;100.00
59513;BME280;45330;51.634;5.562;2024-01-15T01:14:55;100277.19;;;-0.81;100.00
59513;BME280;45330;51.634;5.562;2024-01-15T01:17:21;100233.94;;;-1.04;100.00
59513;BME280;45330;51.634;5.562;2024-01-15T01:19:47;100249.41;;;-0.99;100.00
59513;BME280;45330;51.634;5.562;2024-01-15T01:22:12;100273.63;;;-0.87;100.00
59513;BME280;45330;51.634;5.562;2024-01-15T01:24:37;100244.03;;;-1.07;100.00
59513;BME280;45330;51.634;5.562;2024-01-15T01:27:03;100259.75;;;-0.95;100.00
59513;BME280;45330;51.634;5.562;2024-01-15T01:29:28;100262.16;;;-0.99;100.00
59513;BME280;45330;51.634;5.562;2024-01-15T01:31:54;100242.94;;;-1.15;100.00
59513;BME280;45330;51.634;5.562;2024-01-15T01:34:19;100268.13;;;-0.99;100.00
59513;BME280;45330;51.634;5.562;2024-01-15T01:36:45;100269.78;;;-1.01;100.00
59513;BME280;45330;51.634;5.562;2024-01-15T01:39:10;100252.47;;;-1.10;100.00
59513;BME280;45330;51.634;5.562;2024-01-15T01:41:36;100267.88;;;-1.08;100.00
59513;BME280;45330;51.634;5.562;2024-01-15T01:44:01;100240.81;;;-1.29;100.00
59513;BME280;45330;51.634;5.562;2024-01-15T01:46:27;100280.56;;;-1.10;100.00
59513;BME280;45330;51.634;5.562;2024-01-15T01:48:54;100276.13;;;-1.15;100.00
59513;BME280;45330;51.634;5.562;2024-01-15T01:51:22;100275.16;;;-1.19;100.00
59513;BME280;45330;51.634;5.562;2024-01-15T01:53:48;100252.56;;;-1.34;100.00
59513;BME280;45330;51.634;5.562;2024-01-15T01:56:15;100266.56;;;-1.21;100.00
59513;BME280;45330;51.634;5.562;2024-01-15T01:58:40;100251.69;;;-1.34;100.00
59513;BME280;45330;51.634;5.562;2024-01-15T02:01:06;100270.06;;;-1.19;100.00
59513;BME280;45330;51.634;5.562;2024-01-15T02:03:32;100257.88;;;-1.28;100.00
59513;BME280;45330;51.634;5.562;2024-01-15T02:05:59;100238.63;;;-1.44;100.00
59513;BME280;45330;51.634;5.562;2024-01-15T02:08:25;100237.59;;;-1.50;100.00
59513;BME280;45330;51.634;5.562;2024-01-15T02:10:51;100190.69;;;-1.80;100.00
59513;BME280;45330;51.634;5.562;2024-01-15T02:13:17;100271.34;;;-1.32;100.00
59513;BME280;45330;51.634;5.562;2024-01-15T02:15:43;100250.63;;;-1.41;100.00
59513;BME280;45330;51.634;5.562;2024-01-15T02:18:08;100260.31;;;-1.31;100.00
59513;BME280;45330;51.634;5.562;2024-01-15T02:20:33;100233.38;;;-1.48;100.00
59513;BME280;45330;51.634;5.562;2024-01-15T02:23:15;100265.41;;;-1.31;100.00
59513;BME280;45330;51.634;5.562;2024-01-15T02:25:43;100230.72;;;-1.51;100.00
59513;BME280;45330;51.634;5.562;2024-01-15T02:28:14;100256.84;;;-1.33;100.00
59513;BME280;45330;51.634;5.562;2024-01-15T02:30:41;100243.06;;;-1.38;100.00
59513;BME280;45330;51.634;5.562;2024-01-15T02:33:08;100238.84;;;-1.38;100.00
59513;BME280;45330;51.634;5.562;2024-01-15T02:35:34;100254.34;;;-1.31;100.00
59513;BME280;45330;51.634;5.562;2024-01-15T02:38:03;100229.09;;;-1.49;100.00
59513;BME280;45330;51.634;5.562;2024-01-15T02:40:29;100250.53;;;-1.44;100.00
59513;BME280;45330;51.634;5.562;2024-01-15T02:42:54;100261.06;;;-1.35;100.00
59513;BME280;45330;51.634;5.562;2024-01-15T02:45:21;100258.53;;;-1.33;100.00
59513;BME280;45330;51.634;5.562;2024-01-15T02:47:46;100229.94;;;-1.50;100.00
59513;BME280;45330;51.634;5.562;2024-01-15T02:50:12;100253.50;;;-1.32;100.00
59513;BME280;45330;51.634;5.562;2024-01-15T02:52:38;100257.69;;;-1.32;100.00
59513;BME280;45330;51.634;5.562;2024-01-15T02:55:03;100245.28;;;-1.49;100.00
59513;BME280;45330;51.634;5.562;2024-01-15T02:57:29;100262.81;;;-1.32;100.00
59513;BME280;45330;51.634;5.562;2024-01-15T02:59:54;100256.03;;;-1.32;100.00
59513;BME280;45330;51.634;5.562;2024-01-15T03:02:19;100259.94;;;-1.43;100.00
59513;BME280;45330;51.634;5.562;2024-01-15T03:04:45;100265.06;;;-1.42;100.00
59513;BME280;45330;51.634;5.562;2024-01-15T03:07:10;100261.44;;;-1.48;100.00
59513;BME280;45330;51.634;5.562;2024-01-15T03:09:36;100231.03;;;-1.68;100.00
59513;BME280;45330;51.634;5.562;2024-01-15T03:12:01;100250.13;;;-1.57;100.00
59513;BME280;45330;51.634;5.562;2024-01-15T03:14:27;100254.31;;;-1.59;100.00
59513;BME280;45330;51.634;5.562;2024-01-15T03:16:53;100265.38;;;-1.58;100.00
59513;BME280;45330;51.634;5.562;2024-01-15T03:19:18;100232.56;;;-1.73;100.00
59513;BME280;45330;51.634;5.562;2024-01-15T03:21:43;100260.41;;;-1.53;100.00
59513;BME280;45330;51.634;5.562;2024-01-15T03:24:09;100222.44;;;-1.71;100.00
59513;BME280;45330;51.634;5.562;2024-01-15T03:26:34;100258.00;;;-1.50;100.00
59513;BME280;45330;51.634;5.562;2024-01-15T03:28:59;100251.91;;;-1.54;100.00
59513;BME280;45330;51.634;5.562;2024-01-15T03:31:25;100257.06;;;-1.52;100.00
59513;BME280;45330;51.634;5.562;2024-01-15T03:33:50;100252.75;;;-1.53;100.00
59513;BME280;45330;51.634;5.562;2024-01-15T03:36:15;100218.84;;;-1.77;100.00
59513;BME280;45330;51.634;5.562;2024-01-15T03:38:41;100241.38;;;-1.63;100.00
59513;BME280;45330;51.634;5.562;2024-01-15T03:41:07;100224.03;;;-1.74;100.00
59513;BME280;45330;51.634;5.562;2024-01-15T03:43:33;100245.78;;;-1.59;100.00
59513;BME280;45330;51.634;5.562;2024-01-15T03:45:58;100193.91;;;-1.85;100.00
59513;BME280;45330;51.634;5.562;2024-01-15T03:48:24;100252.66;;;-1.57;100.00
59513;BME280;45330;51.634;5.562;2024-01-15T03:50:49;100202.47;;;-1.83;100.00
59513;BME280;45330;51.634;5.562;2024-01-15T03:53:15;100243.19;;;-1.61;100.00
59513;BME280;45330;51.634;5.562;2024-01-15T03:55:40;100206.84;;;-1.79;100.00
59513;BME280;45330;51.634;5.562;2024-01-15T03:58:06;100244.88;;;-1.61;100.00
59513;BME280;45330;51.634;5.562;2024-01-15T04:00:31;100243.22;;;-1.59;100.00
59513;BME280;45330;51.634;5.562;2024-01-15T04:02:56;100230.31;;;-1.64;100.00
59513;BME280;45330;51.634;5.562;2024-01-15T04:05:22;100201.94;;;-1.73;100.00
59513;BME280;45330;51.634;5.562;2024-01-15T04:07:47;100211.66;;;-1.63;100.00
59513;BME280;45330;51.634;5.562;2024-01-15T04:10:12;100210.28;;;-1.53;100.00
59513;BME280;45330;51.634;5.562;2024-01-15T04:12:38;100197.69;;;-1.47;100.00
59513;BME280;45330;51.634;5.562;2024-01-15T04:15:03;100221.22;;;-1.30;100.00
59513;BME280;45330;51.634;5.562;2024-01-15T04:17:29;100184.94;;;-1.47;100.00
59513;BME280;45330;51.634;5.562;2024-01-15T04:19:54;100215.59;;;-1.19;100.00
59513;BME280;45330;51.634;5.562;2024-01-15T04:22:20;100191.50;;;-1.28;100.00
59513;BME280;45330;51.634;5.562;2024-01-15T04:24:45;100227.09;;;-1.05;100.00
59513;BME280;45330;51.634;5.562;2024-01-15T04:27:11;100190.06;;;-1.19;100.00
59513;BME280;45330;51.634;5.562;2024-01-15T04:29:39;100196.38;;;-1.08;100.00
59513;BME280;45330;51.634;5.562;2024-01-15T04:32:05;100211.31;;;-0.92;100.00
59513;BME280;45330;51.634;5.562;2024-01-15T04:34:31;100191.53;;;-0.99;100.00
59513;BME280;45330;51.634;5.562;2024-01-15T04:36:56;100181.34;;;-0.97;100.00
59513;BME280;45330;51.634;5.562;2024-01-15T04:39:22;100198.84;;;-0.82;100.00
59513;BME280;45330;51.634;5.562;2024-01-15T04:41:47;100197.91;;;-0.84;100.00
59513;BME280;45330;51.634;5.562;2024-01-15T04:44:13;100204.75;;;-0.83;100.00
59513;BME280;45330;51.634;5.562;2024-01-15T04:46:38;100196.41;;;-0.78;100.00
59513;BME280;45330;51.634;5.562;2024-01-15T04:49:04;100199.88;;;-0.76;100.00
59513;BME280;45330;51.634;5.562;2024-01-15T04:51:29;100194.72;;;-0.77;100.00
59513;BME280;45330;51.634;5.562;2024-01-15T04:53:54;100197.28;;;-0.77;100.00
59513;BME280;45330;51.634;5.562;2024-01-15T04:56:20;100203.41;;;-0.71;100.00
59513;BME280;45330;51.634;5.562;2024-01-15T04:58:45;100169.00;;;-0.83;100.00
59513;BME280;45330;51.634;5.562;2024-01-15T05:01:11;100154.41;;;-0.88;100.00
59513;BME280;45330;51.634;5.562;2024-01-15T05:03:37;100205.56;;;-0.56;100.00
59513;BME280;45330;51.634;5.562;2024-01-15T05:06:02;100220.38;;;-0.44;100.00
59513;BME280;45330;51.634;5.562;2024-01-15T05:08:28;100214.47;;;-0.41;100.00
59513;BME280;45330;51.634;5.562;2024-01-15T05:10:53;100178.59;;;-0.75;100.00
59513;BME280;45330;51.634;5.562;2024-01-15T05:13:18;100222.00;;;-0.76;100.00
59513;BME280;45330;51.634;5.562;2024-01-15T05:15:44;100207.34;;;-0.82;100.00
59513;BME280;45330;51.634;5.562;2024-01-15T05:18:09;100182.00;;;-1.05;100.00
59513;BME280;45330;51.634;5.562;2024-01-15T05:20:35;100188.03;;;-1.02;100.00
59513;BME280;45330;51.634;5.562;2024-01-15T05:23:00;100205.09;;;-1.00;100.00
59513;BME280;45330;51.634;5.562;2024-01-15T05:25:25;100167.28;;;-1.13;100.00
59513;BME280;45330;51.634;5.562;2024-01-15T05:27:51;100153.31;;;-1.25;100.00
59513;BME280;45330;51.634;5.562;2024-01-15T05:30:16;100173.09;;;-1.17;100.00
59513;BME280;45330;51.634;5.562;2024-01-15T05:32:42;100179.34;;;-1.08;100.00
59513;BME280;45330;51.634;5.562;2024-01-15T05:35:07;100173.28;;;-1.11;100.00
59513;BME280;45330;51.634;5.562;2024-01-15T05:37:32;100123.22;;;-1.35;100.00
59513;BME280;45330;51.634;5.562;2024-01-15T05:39:58;100176.13;;;-1.02;100.00
59513;BME280;45330;51.634;5.562;2024-01-15T05:42:23;100180.53;;;-0.96;100.00
59513;BME280;45330;51.634;5.562;2024-01-15T05:44:49;100177.25;;;-0.92;100.00
59513;BME280;45330;51.634;5.562;2024-01-15T05:47:14;100173.94;;;-0.90;100.00
59513;BME280;45330;51.634;5.562;2024-01-15T05:49:40;100182.56;;;-0.84;100.00
59513;BME280;45330;51.634;5.562;2024-01-15T05:52:05;100154.97;;;-0.98;100.00
59513;BME280;45330;51.634;5.562;2024-01-15T05:54:31;100163.69;;;-0.91;100.00
59513;BME280;45330;51.634;5.562;2024-01-15T05:56:56;100175.97;;;-0.78;100.00
59513;BME280;45330;51.634;5.562;2024-01-15T05:59:22;100176.06;;;-0.75;100.00
59513;BME280;45330;51.634;5.562;2024-01-15T06:01:47;100181.28;;;-0.72;100.00
59513;BME280;45330;51.634;5.562;2024-01-15T06:04:12;100173.66;;;-0.70;100.00
59513;BME280;45330;51.634;5.562;2024-01-15T06:06:38;100155.50;;;-0.79;100.00
59513;BME280;45330;51.634;5.562;2024-01-15T06:09:03;100172.03;;;-0.66;100.00
59513;BME280;45330;51.634;5.562;2024-01-15T06:11:33;100159.94;;;-0.72;100.00
59513;BME280;45330;51.634;5.562;2024-01-15T06:13:59;100152.97;;;-0.78;100.00
59513;BME280;45330;51.634;5.562;2024-01-15T06:16:28;100164.00;;;-0.79;100.00
59513;BME280;45330;51.634;5.562;2024-01-15T06:18:53;100164.81;;;-0.81;100.00
59513;BME280;45330;51.634;5.562;2024-01-15T06:21:19;100162.09;;;-0.86;100.00
59513;BME280;45330;51.634;5.562;2024-01-15T06:23:44;100160.44;;;-0.85;100.00
59513;BME280;45330;51.634;5.562;2024-01-15T06:26:11;100118.19;;;-1.03;100.00
59513;BME280;45330;51.634;5.562;2024-01-15T06:28:37;100125.84;;;-1.03;100.00
59513;BME280;45330;51.634;5.562;2024-01-15T06:31:02;100123.47;;;-0.98;100.00
59513;BME280;45330;51.634;5.562;2024-01-15T06:33:28;100122.53;;;-1.00;100.00
59513;BME280;45330;51.634;5.562;2024-01-15T06:35:54;100125.94;;;-1.00;100.00
59513;BME280;45330;51.634;5.562;2024-01-15T06:38:19;100154.56;;;-0.83;100.00
59513;BME280;45330;51.634;5.562;2024-01-15T06:40:45;100125.94;;;-1.00;100.00
59513;BME280;45330;51.634;5.562;2024-01-15T06:43:14;100157.78;;;-0.89;100.00
59513;BME280;45330;51.634;5.562;2024-01-15T06:45:40;100138.72;;;-1.00;100.00
59513;BME280;45330;51.634;5.562;2024-01-15T06:48:06;100133.47;;;-1.05;100.00
59513;BME280;45330;51.634;5.562;2024-01-15T06:50:32;100155.16;;;-0.90;100.00
59513;BME280;45330;51.634;5.562;2024-01-15T06:52:58;100154.59;;;-0.81;100.00
59513;BME280;45330;51.634;5.562;2024-01-15T06:55:23;100152.00;;;-0.83;100.00
59513;BME280;45330;51.634;5.562;2024-01-15T06:57:49;100153.75;;;-0.80;100.00
59513;BME280;45330;51.634;5.562;2024-01-15T07:00:15;100161.53;;;-0.77;100.00
59513;BME280;45330;51.634;5.562;2024-01-15T07:02:41;100154.56;;;-0.83;100.00
59513;BME280;45330;51.634;5.562;2024-01-15T07:05:06;100134.75;;;-0.90;100.00
59513;BME280;45330;51.634;5.562;2024-01-15T07:07:32;100154.84;;;-0.72;100.00
59513;BME280;45330;51.634;5.562;2024-01-15T07:09:57;100126.34;;;-0.86;100.00
59513;BME280;45330;51.634;5.562;2024-01-15T07:12:22;100151.75;;;-0.62;100.00
59513;BME280;45330;51.634;5.562;2024-01-15T07:14:49;100148.19;;;-0.67;100.00
59513;BME280;45330;51.634;5.562;2024-01-15T07:17:14;100149.97;;;-0.64;100.00
59513;BME280;45330;51.634;5.562;2024-01-15T07:19:40;100144.78;;;-0.67;100.00
59513;BME280;45330;51.634;5.562;2024-01-15T07:22:06;100102.38;;;-0.91;100.00
59513;BME280;45330;51.634;5.562;2024-01-15T07:24:31;100108.31;;;-0.92;100.00
59513;BME280;45330;51.634;5.562;2024-01-15T07:26:59;100105.91;;;-0.86;100.00
59513;BME280;45330;51.634;5.562;2024-01-15T07:29:24;100149.19;;;-0.62;100.00
59513;BME280;45330;51.634;5.562;2024-01-15T07:31:50;100159.34;;;-0.63;100.00
59513;BME280;45330;51.634;5.562;2024-01-15T07:34:16;100152.50;;;-0.64;100.00
59513;BME280;45330;51.634;5.562;2024-01-15T07:36:44;100137.78;;;-0.73;100.00
59513;BME280;45330;51.634;5.562;2024-01-15T07:39:09;100157.47;;;-0.69;100.00
59513;BME280;45330;51.634;5.562;2024-01-15T07:41:35;100136.13;;;-1.01;100.00
59513;BME280;45330;51.634;5.562;2024-01-15T07:44:00;100171.19;;;-0.96;100.00
59513;BME280;45330;51.634;5.562;2024-01-15T07:46:26;100138.94;;;-1.21;100.00
59513;BME280;45330;51.634;5.562;2024-01-15T07:48:52;100177.81;;;-1.02;100.00
59513;BME280;45330;51.634;5.562;2024-01-15T07:51:22;100162.13;;;-1.15;100.00
59513;BME280;45330;51.634;5.562;2024-01-15T07:53:47;100147.56;;;-1.17;100.00
59513;BME280;45330;51.634;5.562;2024-01-15T07:56:13;100184.75;;;-0.98;100.00
59513;BME280;45330;51.634;5.562;2024-01-15T07:58:38;100182.19;;;-0.98;100.00
59513;BME280;45330;51.634;5.562;2024-01-15T08:01:04;100175.47;;;-0.95;100.00
59513;BME280;45330;51.634;5.562;2024-01-15T08:03:29;100173.72;;;-0.96;100.00
59513;BME280;45330;51.634;5.562;2024-01-15T08:05:55;100160.78;;;-1.02;100.00
59513;BME280;45330;51.634;5.562;2024-01-15T08:08:22;100191.78;;;-0.91;100.00
59513;BME280;45330;51.634;5.562;2024-01-15T08:10:48;100193.56;;;-0.89;100.00
59513;BME280;45330;51.634;5.562;2024-01-15T08:13:14;100198.75;;;-0.85;100.00
59513;BME280;45330;51.634;5.562;2024-01-15T08:15:40;100145.22;;;-1.10;100.00
59513;BME280;45330;51.634;5.562;2024-01-15T08:18:06;100201.44;;;-0.81;100.00
59513;BME280;45330;51.634;5.562;2024-01-15T08:20:31;100198.00;;;-0.81;100.00
59513;BME280;45330;51.634;5.562;2024-01-15T08:22:57;100181.41;;;-0.96;100.00
59513;BME280;45330;51.634;5.562;2024-01-15T08:25:22;100208.38;;;-0.77;100.00
59513;BME280;45330;51.634;5.562;2024-01-15T08:27:48;100210.09;;;-0.76;100.00
59513;BME280;45330;51.634;5.562;2024-01-15T08:30:13;100197.00;;;-0.87;100.00
59513;BME280;45330;51.634;5.562;2024-01-15T08:32:39;100196.97;;;-0.88;100.00
59513;BME280;45330;51.634;5.562;2024-01-15T08:35:10;100189.09;;;-0.94;100.00
59513;BME280;45330;51.634;5.562;2024-01-15T08:37:37;100207.94;;;-0.91;100.00
59513;BME280;45330;51.634;5.562;2024-01-15T08:40:02;100176.13;;;-1.02;100.00
59513;BME280;45330;51.634;5.562;2024-01-15T08:42:29;100198.53;;;-0.92;100.00
59513;BME280;45330;51.634;5.562;2024-01-15T08:44:54;100216.84;;;-0.78;100.00
59513;BME280;45330;51.634;5.562;2024-01-15T08:47:19;100210.31;;;-0.68;100.00
59513;BME280;45330;51.634;5.562;2024-01-15T08:49:45;100175.81;;;-0.84;100.00
59513;BME280;45330;51.634;5.562;2024-01-15T08:52:11;100198.47;;;-0.66;100.00
59513;BME280;45330;51.634;5.562;2024-01-15T08:54:36;100220.25;;;-0.48;100.00
59513;BME280;45330;51.634;5.562;2024-01-15T08:57:02;100212.19;;;-0.62;100.00
59513;BME280;45330;51.634;5.562;2024-01-15T08:59:28;100222.63;;;-0.55;100.00
59513;BME280;45330;51.634;5.562;2024-01-15T09:01:53;100194.78;;;-0.76;100.00
59513;BME280;45330;51.634;5.562;2024-01-15T09:04:19;100133.16;;;-1.15;100.00
59513;BME280;45330;51.634;5.562;2024-01-15T09:06:48;100174.38;;;-1.03;100.00
59513;BME280;45330;51.634;5.562;2024-01-15T09:09:13;100186.19;;;-1.07;100.00
59513;BME280;45330;51.634;5.562;2024-01-15T09:11:40;100223.34;;;-0.88;100.00
59513;BME280;45330;51.634;5.562;2024-01-15T09:14:06;100178.50;;;-1.08;100.00
59513;BME280;45330;51.634;5.562;2024-01-15T09:16:31;100220.00;;;-0.87;100.00
59513;BME280;45330;51.634;5.562;2024-01-15T09:18:57;100186.41;;;-0.99;100.00
59513;BME280;45330;51.634;5.562;2024-01-15T09:21:23;100188.94;;;-1.00;100.00
59513;BME280;45330;51.634;5.562;2024-01-15T09:23:50;100211.47;;;-0.87;100.00
59513;BME280;45330;51.634;5.562;2024-01-15T09:26:15;100213.13;;;-0.88;100.00
59513;BME280;45330;51.634;5.562;2024-01-15T09:28:41;100189.06;;;-0.96;100.00
59513;BME280;45330;51.634;5.562;2024-01-15T09:31:06;100184.09;;;-0.91;100.00
59513;BME280;45330;51.634;5.562;2024-01-15T09:33:31;100203.47;;;-0.69;100.00
59513;BME280;45330;51.634;5.562;2024-01-15T09:35:57;100208.78;;;-0.63;100.00
59513;BME280;45330;51.634;5.562;2024-01-15T09:38:22;100189.88;;;-0.68;100.00
59513;BME280;45330;51.634;5.562;2024-01-15T09:40:49;100197.03;;;-0.56;100.00
59513;BME280;45330;51.634;5.562;2024-01-15T09:43:14;100171.06;;;-0.72;100.00
59513;BME280;45330;51.634;5.562;2024-01-15T09:45:41;100206.66;;;-0.47;100.00
59513;BME280;45330;51.634;5.562;2024-01-15T09:48:07;100183.13;;;-0.66;100.00
59513;BME280;45330;51.634;5.562;2024-01-15T09:50:33;100201.25;;;-0.57;100.00
59513;BME280;45330;51.634;5.562;2024-01-15T09:52:59;100199.81;;;-0.48;100.00
59513;BME280;45330;51.634;5.562;2024-01-15T09:55:25;100217.38;;;-0.29;100.00
59513;BME280;45330;51.634;5.562;2024-01-15T09:57:52;100188.22;;;-0.36;100.00
59513;BME280;45330;51.634;5.562;2024-01-15T10:00:19;100185.22;;;-0.21;100.00
59513;BME280;45330;51.634;5.562;2024-01-15T10:02:45;100173.34;;;-0.19;100.00
59513;BME280;45330;51.634;5.562;2024-01-15T10:05:11;100180.41;;;-0.10;100.00
59513;BME280;45330;51.634;5.562;2024-01-15T10:07:37;100208.09;;;0.07;100.00
59513;BME280;45330;51.634;5.562;2024-01-15T10:10:03;100192.56;;;-0.01;100.00
59513;BME280;45330;51.634;5.562;2024-01-15T10:12:29;100176.22;;;-0.06;100.00
59513;BME280;45330;51.634;5.562;2024-01-15T10:14:56;100185.97;;;0.07;100.00
59513;BME280;45330;51.634;5.562;2024-01-15T10:17:21;100208.22;;;0.81;100.00
59513;BME280;45330;51.634;5.562;2024-01-15T10:19:47;100205.88;;;0.91;100.00
59513;BME280;45330;51.634;5.562;2024-01-15T10:22:13;100211.63;;;0.80;100.00
59513;BME280;45330;51.634;5.562;2024-01-15T10:24:40;100176.00;;;0.55;100.00
59513;BME280;45330;51.634;5.562;2024-01-15T10:27:09;100163.16;;;0.51;100.00
59513;BME280;45330;51.634;5.562;2024-01-15T10:29:35;100191.41;;;0.93;100.00
59513;BME280;45330;51.634;5.562;2024-01-15T10:32:02;100209.88;;;1.16;100.00
59513;BME280;45330;51.634;5.562;2024-01-15T10:34:27;100204.88;;;1.24;100.00
59513;BME280;45330;51.634;5.562;2024-01-15T10:36:54;100217.63;;;1.20;100.00
59513;BME280;45330;51.634;5.562;2024-01-15T10:39:23;100175.88;;;0.85;100.00
59513;BME280;45330;51.634;5.562;2024-01-15T10:41:49;100170.56;;;0.77;100.00
59513;BME280;45330;51.634;5.562;2024-01-15T10:44:19;100190.81;;;0.66;100.00
59513;BME280;45330;51.634;5.562;2024-01-15T10:46:45;100189.75;;;0.57;100.00
59513;BME280;45330;51.634;5.562;2024-01-15T10:49:11;100192.00;;;0.44;100.00
59513;BME280;45330;51.634;5.562;2024-01-15T10:51:37;100154.66;;;0.17;100.00
59513;BME280;45330;51.634;5.562;2024-01-15T10:54:02;100152.06;;;0.16;100.00
59513;BME280;45330;51.634;5.562;2024-01-15T10:56:30;100167.50;;;0.19;100.00
59513;BME280;45330;51.634;5.562;2024-01-15T10:58:56;100191.53;;;0.26;100.00
59513;BME280;45330;51.634;5.562;2024-01-15T11:01:23;100179.63;;;0.28;100.00
59513;BME280;45330;51.634;5.562;2024-01-15T11:03:49;100195.53;;;0.49;100.00
59513;BME280;45330;51.634;5.562;2024-01-15T11:06:18;100186.00;;;0.42;100.00
59513;BME280;45330;51.634;5.562;2024-01-15T11:08:51;100193.81;;;0.48;100.00
59513;BME280;45330;51.634;5.562;2024-01-15T11:11:17;100168.97;;;0.44;100.00
59513;BME280;45330;51.634;5.562;2024-01-15T11:13:43;100161.50;;;0.54;100.00
59513;BME280;45330;51.634;5.562;2024-01-15T11:16:13;100169.44;;;0.66;100.00
59513;BME280;45330;51.634;5.562;2024-01-15T11:18:43;100178.22;;;0.76;100.00
59513;BME280;45330;51.634;5.562;2024-01-15T11:21:26;100155.72;;;0.62;100.00
59513;BME280;45330;51.634;5.562;2024-01-15T11:23:57;100171.44;;;0.78;100.00
59513;BME280;45330;51.634;5.562;2024-01-15T11:28:55;100154.03;;;0.63;100.00
59513;BME280;45330;51.634;5.562;2024-01-15T11:31:29;100188.50;;;0.77;100.00
59513;BME280;45330;51.634;5.562;2024-01-15T11:33:54;100185.03;;;0.75;100.00
59513;BME280;45330;51.634;5.562;2024-01-15T11:36:23;100173.09;;;0.76;100.00
59513;BME280;45330;51.634;5.562;2024-01-15T11:41:58;100189.06;;;1.02;100.00
59513;BME280;45330;51.634;5.562;2024-01-15T11:44:25;100163.97;;;0.89;100.00
59513;BME280;45330;51.634;5.562;2024-01-15T11:47:02;100158.19;;;1.37;100.00
59513;BME280;45330;51.634;5.562;2024-01-15T11:52:21;100194.38;;;1.97;100.00
59513;BME280;45330;51.634;5.562;2024-01-15T11:57:22;100175.03;;;1.26;100.00
59513;BME280;45330;51.634;5.562;2024-01-15T11:59:50;100196.09;;;1.52;100.00
59513;BME280;45330;51.634;5.562;2024-01-15T12:02:16;100170.22;;;1.40;100.00
59513;BME280;45330;51.634;5.562;2024-01-15T12:04:41;100213.91;;;1.46;100.00
59513;BME280;45330;51.634;5.562;2024-01-15T12:07:07;100200.53;;;1.19;100.00
59513;BME280;45330;51.634;5.562;2024-01-15T12:09:33;100224.22;;;1.09;100.00
59513;BME280;45330;51.634;5.562;2024-01-15T12:12:04;100182.28;;;0.67;100.00
59513;BME280;45330;51.634;5.562;2024-01-15T12:14:32;100186.16;;;0.50;100.00
59513;BME280;45330;51.634;5.562;2024-01-15T12:17:00;100206.94;;;0.62;100.00
59513;BME280;45330;51.634;5.562;2024-01-15T12:19:25;100190.31;;;0.46;100.00
59513;BME280;45330;51.634;5.562;2024-01-15T12:21:51;100228.28;;;0.63;100.00
59513;BME280;45330;51.634;5.562;2024-01-15T12:24:17;100238.00;;;0.76;100.00
59513;BME280;45330;51.634;5.562;2024-01-15T12:26:42;100246.13;;;0.95;100.00
59513;BME280;45330;51.634;5.562;2024-01-15T12:29:10;100233.88;;;0.83;100.00
59513;BME280;45330;51.634;5.562;2024-01-15T12:31:36;100248.38;;;0.82;100.00
59513;BME280;45330;51.634;5.562;2024-01-15T12:34:01;100258.13;;;0.61;100.00
59513;BME280;45330;51.634;5.562;2024-01-15T12:36:30;100248.38;;;0.47;100.00
59513;BME280;45330;51.634;5.562;2024-01-15T12:38:59;100245.78;;;0.46;100.00
59513;BME280;45330;51.634;5.562;2024-01-15T12:41:24;100258.22;;;0.65;100.00
59513;BME280;45330;51.634;5.562;2024-01-15T12:43:50;100275.47;;;0.73;100.00
59513;BME280;45330;51.634;5.562;2024-01-15T12:46:16;100268.03;;;0.48;100.00
59513;BME280;45330;51.634;5.562;2024-01-15T12:48:41;100271.31;;;0.43;100.00